createdAt,value
2022-08-18T00:01:37.159Z,3.72
2022-08-18T00:04:24.249Z,3.50
2022-08-18T00:07:07.148Z,3.10
2022-08-18T00:09:41.072Z,3.20
2022-08-18T00:12:17.136Z,3.42
2022-08-18T00:14:49.910Z,3.22
2022-08-18T00:17:25.134Z,3.40
2022-08-18T00:19:57.844Z,3.40
2022-08-18T00:22:30.672Z,3.35
2022-08-18T00:25:03.650Z,3.05
2022-08-18T00:30:14.278Z,3.40
2022-08-18T00:32:53.003Z,2.95
2022-08-18T00:35:28.974Z,2.90
2022-08-18T00:38:04.829Z,3.20
2022-08-18T00:40:41.056Z,3.25
2022-08-18T00:43:19.779Z,3.33
2022-08-18T00:45:52.752Z,3.92
2022-08-18T00:51:04.349Z,3.15
2022-08-18T00:53:43.983Z,3.30
2022-08-18T00:56:22.341Z,2.97
2022-08-18T00:59:00.873Z,3.40
2022-08-18T01:01:34.760Z,2.60
2022-08-18T01:04:13.648Z,3.30
2022-08-18T01:06:52.386Z,3.10
2022-08-18T01:09:25.762Z,2.92
2022-08-18T01:11:58.645Z,2.90
2022-08-18T01:14:31.741Z,3.42
2022-08-18T01:20:13.937Z,3.38
2022-08-18T01:23:05.592Z,3.20
2022-08-18T01:25:56.690Z,3.15
2022-08-18T01:28:30.455Z,3.65
2022-08-18T01:31:04.199Z,3.47
2022-08-18T01:33:39.053Z,3.72
2022-08-18T01:36:16.740Z,2.97
2022-08-18T01:38:53.999Z,3.05
2022-08-18T01:41:30.671Z,3.33
2022-08-18T01:44:05.178Z,3.17
2022-08-18T01:46:41.256Z,3.17
2022-08-18T01:49:14.472Z,3.03
2022-08-18T01:51:48.523Z,3.05
2022-08-18T01:54:23.028Z,3.22
2022-08-18T01:56:55.862Z,2.85
2022-08-18T01:59:28.569Z,3.45
2022-08-18T02:02:01.813Z,2.95
2022-08-18T02:04:36.968Z,2.95
2022-08-18T02:07:12.527Z,2.78
2022-08-18T02:09:46.800Z,2.97
2022-08-18T02:12:23.981Z,3.15
2022-08-18T02:14:57.139Z,2.63
2022-08-18T02:17:30.124Z,2.95
2022-08-18T02:22:37.269Z,2.72
2022-08-18T02:27:45.909Z,3.25
2022-08-18T02:30:19.670Z,2.90
2022-08-18T02:32:52.519Z,2.70
2022-08-18T02:35:25.592Z,2.78
2022-08-18T02:38:00.070Z,2.38
2022-08-18T02:40:35.562Z,2.70
2022-08-18T02:43:11.002Z,2.60
2022-08-18T02:45:43.776Z,3.13
2022-08-18T02:48:16.631Z,2.75
2022-08-18T02:50:49.456Z,3.78
2022-08-18T02:53:23.062Z,2.78
2022-08-18T02:56:05.027Z,3.13
2022-08-18T02:58:37.731Z,2.65
2022-08-18T03:01:10.942Z,2.47
2022-08-18T03:03:43.758Z,2.88
2022-08-18T03:06:16.662Z,2.63
2022-08-18T03:11:27.950Z,2.78
2022-08-18T03:14:01.274Z,2.92
2022-08-18T03:16:36.227Z,2.63
2022-08-18T03:19:09.021Z,2.97
2022-08-18T03:21:41.735Z,2.35
2022-08-18T03:24:22.867Z,2.38
2022-08-18T03:26:58.395Z,2.80
2022-08-18T03:29:32.948Z,2.80
2022-08-18T03:32:08.653Z,2.97
2022-08-18T03:34:43.174Z,2.88
2022-08-18T03:37:17.370Z,2.63
2022-08-18T03:39:51.830Z,2.75
2022-08-18T03:42:26.056Z,2.90
2022-08-18T03:44:58.980Z,2.88
2022-08-18T03:50:05.552Z,2.50
2022-08-18T03:52:41.778Z,3.10
2022-08-18T03:55:14.856Z,2.40
2022-08-18T03:57:48.919Z,2.88
2022-08-18T04:00:21.920Z,2.63
2022-08-18T04:05:28.664Z,2.80
2022-08-18T04:08:02.588Z,2.60
2022-08-18T04:10:36.251Z,2.95
2022-08-18T04:13:10.447Z,2.85
2022-08-18T04:15:43.266Z,2.78
2022-08-18T04:18:15.966Z,2.75
2022-08-18T04:20:59.914Z,2.95
2022-08-18T04:23:39.416Z,2.60
2022-08-18T04:26:19.249Z,3.00
2022-08-18T04:28:53.572Z,2.72
2022-08-18T04:31:26.473Z,2.90
2022-08-18T04:34:00.940Z,2.72
2022-08-18T04:36:37.208Z,2.20
2022-08-18T04:39:12.130Z,2.40
2022-08-18T04:41:45.026Z,2.40
2022-08-18T04:46:54.530Z,2.70
2022-08-18T04:49:27.563Z,2.40
2022-08-18T04:55:11.862Z,2.47
2022-08-18T04:57:45.403Z,2.72
2022-08-18T05:00:19.604Z,2.75
2022-08-18T05:02:54.590Z,2.65
2022-08-18T05:05:27.574Z,2.60
2022-08-18T05:10:33.079Z,3.13
2022-08-18T05:16:07.133Z,4.35
2022-08-18T05:18:38.598Z,3.10
2022-08-18T05:21:14.308Z,3.05
2022-08-18T05:23:49.087Z,3.60
2022-08-18T05:26:25.825Z,4.47
2022-08-18T05:29:17.614Z,3.55
2022-08-18T05:31:54.400Z,3.38
2022-08-18T05:34:27.209Z,3.05
2022-08-18T05:37:11.655Z,2.78
2022-08-18T05:39:56.551Z,2.78
2022-08-18T05:42:36.832Z,2.75
2022-08-18T05:45:12.795Z,3.05
2022-08-18T05:47:48.258Z,2.45
2022-08-18T05:50:22.471Z,3.17
2022-08-18T05:52:57.936Z,2.72
2022-08-18T05:55:52.568Z,2.67
2022-08-18T05:58:33.506Z,2.33
2022-08-18T06:01:15.883Z,2.72
2022-08-18T06:03:54.378Z,2.47
2022-08-18T06:06:29.592Z,2.60
2022-08-18T06:09:11.988Z,2.67
2022-08-18T06:11:44.728Z,2.63
2022-08-18T06:14:17.574Z,2.75
2022-08-18T06:17:03.349Z,3.00
2022-08-18T06:19:50.527Z,3.03
2022-08-18T06:22:33.919Z,2.92
2022-08-18T06:25:15.703Z,2.50
2022-08-18T06:27:56.597Z,2.53
2022-08-18T06:30:48.208Z,2.90
2022-08-18T06:33:38.511Z,2.40
2022-08-18T06:36:21.736Z,2.42
2022-08-18T06:41:42.708Z,2.55
2022-08-18T06:44:24.461Z,2.30
2022-08-18T06:47:04.518Z,2.60
2022-08-18T06:49:46.675Z,2.60
2022-08-18T06:52:26.884Z,2.50
2022-08-18T06:55:02.261Z,2.42
2022-08-18T06:57:38.305Z,2.47
2022-08-18T07:00:24.011Z,2.30
2022-08-18T07:03:01.844Z,2.65
2022-08-18T07:05:37.257Z,3.00
2022-08-18T07:08:18.778Z,2.67
2022-08-18T07:10:53.551Z,3.20
2022-08-18T07:13:30.241Z,3.53
2022-08-18T07:16:30.133Z,2.78
2022-08-18T07:19:12.469Z,2.45
2022-08-18T07:21:45.669Z,2.40
2022-08-18T07:24:26.391Z,2.80
2022-08-18T07:27:03.585Z,2.50
2022-08-18T07:29:39.103Z,2.35
2022-08-18T07:32:15.962Z,3.05
2022-08-18T07:34:58.211Z,3.40
2022-08-18T07:37:36.236Z,2.97
2022-08-18T07:40:20.632Z,3.15
2022-08-18T07:43:01.807Z,2.67
2022-08-18T07:45:41.131Z,2.70
2022-08-18T07:51:20.947Z,2.70
2022-08-18T07:56:38.863Z,2.10
2022-08-18T07:59:17.894Z,2.50
2022-08-18T08:01:56.461Z,2.45
2022-08-18T08:04:37.508Z,2.28
2022-08-18T08:07:24.308Z,2.05
2022-08-18T08:10:11.982Z,2.85
2022-08-18T08:13:06.068Z,2.30
2022-08-18T08:15:50.325Z,2.50
2022-08-18T08:18:35.333Z,2.13
2022-08-18T08:21:12.858Z,3.22
2022-08-18T08:23:53.192Z,2.60
2022-08-18T08:26:43.199Z,1.95
2022-08-18T08:29:30.287Z,2.30
2022-08-18T08:32:05.258Z,2.15
2022-08-18T08:34:43.761Z,2.38
2022-08-18T08:37:21.938Z,2.65
2022-08-18T08:40:00.329Z,2.60
2022-08-18T08:42:42.278Z,2.22
2022-08-18T08:45:22.161Z,2.00
2022-08-18T08:48:08.510Z,2.78
2022-08-18T08:50:46.107Z,1.92
2022-08-18T08:53:24.489Z,2.30
2022-08-18T08:56:02.933Z,2.40
2022-08-18T08:58:42.255Z,2.13
2022-08-18T09:01:25.494Z,2.10
2022-08-18T09:04:07.254Z,2.13
2022-08-18T09:06:52.361Z,2.38
2022-08-18T09:09:56.521Z,2.10
2022-08-18T09:12:44.746Z,2.38
2022-08-18T09:15:26.918Z,2.28
2022-08-18T09:18:34.996Z,1.90
2022-08-18T09:21:22.292Z,2.00
2022-08-18T09:24:05.801Z,2.17
2022-08-18T09:26:50.152Z,1.80
2022-08-18T09:29:27.326Z,2.30
2022-08-18T09:32:36.397Z,1.73
2022-08-18T09:35:38.821Z,1.80
2022-08-18T09:38:34.101Z,1.77
2022-08-18T09:41:31.271Z,1.98
2022-08-18T09:47:06.284Z,1.60
2022-08-18T09:52:53.751Z,1.30
2022-08-18T09:55:59.311Z,1.75
2022-08-18T09:58:58.739Z,1.73
2022-08-18T10:01:42.340Z,1.52
2022-08-18T10:04:31.010Z,1.50
2022-08-18T10:07:17.576Z,1.70
2022-08-18T10:13:11.161Z,1.23
2022-08-18T10:15:53.576Z,1.38
2022-08-18T10:18:41.455Z,1.58
2022-08-18T10:24:35.315Z,1.42
2022-08-18T10:27:36.740Z,1.33
2022-08-18T10:31:06.257Z,1.38
2022-08-18T10:34:01.670Z,1.20
2022-08-18T10:36:40.170Z,1.88
2022-08-18T10:39:18.296Z,1.48
2022-08-18T10:42:03.696Z,1.67
2022-08-18T10:44:43.563Z,1.38
2022-08-18T10:47:25.667Z,1.60
2022-08-18T10:50:10.398Z,1.20
2022-08-18T10:53:40.420Z,1.52
2022-08-18T10:56:05.329Z,1.50
2022-08-18T10:58:59.467Z,1.40
2022-08-18T11:01:55.631Z,1.23
2022-08-18T11:04:33.246Z,1.40
2022-08-18T11:07:11.785Z,1.30
2022-08-18T11:12:56.238Z,1.38
2022-08-18T11:15:42.394Z,1.85
2022-08-18T11:18:30.204Z,1.65
2022-08-18T11:21:42.045Z,1.30
2022-08-18T11:24:21.004Z,1.40
2022-08-18T11:26:56.167Z,1.00
2022-08-18T11:29:32.649Z,2.42
2022-08-18T11:32:11.473Z,1.50
2022-08-18T11:34:53.128Z,1.25
2022-08-18T11:37:49.067Z,1.20
2022-08-18T11:43:39.116Z,1.80
2022-08-18T11:46:29.635Z,1.70
2022-08-18T11:49:17.353Z,1.67
2022-08-18T11:52:03.470Z,1.52
2022-08-18T11:54:50.943Z,1.55
2022-08-18T12:00:42.990Z,1.38
2022-08-18T12:03:24.041Z,1.63
2022-08-18T12:05:59.906Z,1.20
2022-08-18T12:11:33.742Z,1.25
2022-08-18T12:14:30.540Z,1.40
2022-08-18T12:17:05.349Z,2.15
2022-08-18T12:19:39.313Z,2.10
2022-08-18T12:22:17.501Z,1.75
2022-08-18T12:24:53.017Z,1.65
2022-08-18T12:27:31.887Z,1.88
2022-08-18T12:30:07.080Z,1.75
2022-08-18T12:32:55.740Z,1.63
2022-08-18T12:35:29.512Z,2.38
2022-08-18T12:38:12.336Z,2.30
2022-08-18T12:40:48.246Z,1.80
2022-08-18T12:43:21.483Z,1.70
2022-08-18T12:45:54.664Z,1.92
2022-08-18T12:48:29.915Z,1.67
2022-08-18T12:51:05.809Z,1.60
2022-08-18T12:53:58.286Z,1.40
2022-08-18T12:56:33.963Z,2.10
2022-08-18T12:59:10.796Z,2.00
2022-08-18T13:01:43.922Z,1.88
2022-08-18T13:07:00.167Z,2.20
2022-08-18T13:09:52.664Z,1.60
2022-08-18T13:12:28.158Z,2.17
2022-08-18T13:15:01.662Z,1.90
2022-08-18T13:17:41.506Z,1.90
2022-08-18T13:20:18.111Z,1.67
2022-08-18T13:22:50.807Z,1.90
2022-08-18T13:25:32.495Z,1.77
2022-08-18T13:28:12.509Z,2.78
2022-08-18T13:30:46.680Z,2.10
2022-08-18T13:33:53.614Z,1.85
2022-08-18T13:36:12.005Z,1.67
2022-08-18T13:38:44.944Z,2.03
2022-08-18T13:41:18.086Z,2.08
2022-08-18T13:43:57.485Z,2.00
2022-08-18T13:46:31.920Z,1.70
2022-08-18T13:49:04.623Z,1.73
2022-08-18T13:51:37.494Z,1.88
2022-08-18T13:54:30.463Z,1.65
2022-08-18T13:57:05.266Z,1.60
2022-08-18T13:59:46.456Z,1.73
2022-08-18T14:02:19.669Z,1.70
2022-08-18T14:04:59.699Z,1.42
2022-08-18T14:07:32.789Z,1.90
2022-08-18T14:10:10.702Z,1.80
2022-08-18T14:12:47.139Z,1.58
2022-08-18T14:15:24.483Z,1.52
2022-08-18T14:17:57.196Z,1.65
2022-08-18T14:20:49.498Z,1.73
2022-08-18T14:23:51.438Z,1.70
2022-08-18T14:26:43.404Z,1.92
2022-08-18T14:29:16.932Z,1.70
2022-08-18T14:31:52.306Z,1.60
2022-08-18T14:34:26.916Z,2.35
2022-08-18T14:37:01.287Z,1.90
2022-08-18T14:39:34.534Z,2.67
2022-08-18T14:42:08.330Z,3.33
2022-08-18T14:44:45.968Z,2.97
2022-08-18T14:47:24.455Z,2.05
2022-08-18T14:49:58.141Z,1.73
2022-08-18T14:52:30.807Z,1.80
2022-08-18T14:55:04.134Z,2.00
2022-08-18T14:57:37.278Z,1.98
2022-08-18T15:00:14.320Z,2.15
2022-08-18T15:02:50.259Z,2.05
2022-08-18T15:05:25.035Z,2.10
2022-08-18T15:07:58.792Z,2.28
2022-08-18T15:10:33.117Z,1.70
2022-08-18T15:13:05.917Z,1.83
2022-08-18T15:15:50.615Z,2.05
2022-08-18T15:18:26.579Z,1.52
2022-08-18T15:21:34.253Z,1.48
2022-08-18T15:24:26.697Z,1.50
2022-08-18T15:27:05.940Z,1.98
2022-08-18T15:29:41.567Z,2.50
2022-08-18T15:32:17.764Z,2.38
2022-08-18T15:34:51.943Z,1.88
2022-08-18T15:37:24.793Z,2.90
2022-08-18T15:40:05.216Z,2.22
2022-08-18T15:42:38.383Z,1.33
2022-08-18T15:45:15.824Z,2.00
2022-08-18T15:47:48.985Z,1.92
2022-08-18T15:50:26.122Z,2.28
2022-08-18T15:53:03.772Z,1.67
2022-08-18T15:55:41.721Z,1.80
2022-08-18T15:58:22.090Z,1.98
2022-08-18T16:00:55.170Z,1.77
2022-08-18T16:03:28.847Z,1.33
2022-08-18T16:06:03.344Z,1.65
2022-08-18T16:08:36.062Z,1.65
2022-08-18T16:11:10.538Z,1.45
2022-08-18T16:13:52.692Z,1.30
2022-08-18T16:16:29.216Z,2.13
2022-08-18T16:19:09.066Z,1.58
2022-08-18T16:21:43.186Z,1.70
2022-08-18T16:24:18.241Z,1.70
2022-08-18T16:26:51.947Z,1.83
2022-08-18T16:29:25.074Z,1.38
2022-08-18T16:31:57.752Z,1.50
2022-08-18T16:34:31.034Z,1.70
2022-08-18T16:37:05.228Z,1.77
2022-08-18T16:39:38.119Z,1.42
2022-08-18T16:42:10.834Z,1.60
2022-08-18T16:44:43.783Z,1.27
2022-08-18T16:47:18.485Z,1.33
2022-08-18T16:49:51.242Z,1.80
2022-08-18T16:52:25.259Z,1.30
2022-08-18T16:54:58.256Z,1.30
2022-08-18T16:57:53.743Z,1.75
2022-08-18T17:00:54.553Z,1.38
2022-08-18T17:03:45.744Z,1.30
2022-08-18T17:06:20.871Z,2.08
2022-08-18T17:08:55.658Z,1.73
2022-08-18T17:11:29.066Z,1.52
2022-08-18T17:14:02.271Z,1.30
2022-08-18T17:16:36.289Z,1.80
2022-08-18T17:19:09.528Z,1.45
2022-08-18T17:21:43.117Z,1.15
2022-08-18T17:24:19.778Z,1.50
2022-08-18T17:27:19.217Z,1.70
2022-08-18T17:30:03.825Z,0.90
2022-08-18T17:32:41.738Z,1.38
2022-08-18T17:35:28.655Z,1.33
2022-08-18T17:38:06.724Z,1.30
2022-08-18T17:40:45.161Z,1.30
2022-08-18T17:43:21.167Z,1.50
2022-08-18T17:45:57.686Z,1.17
2022-08-18T17:48:35.773Z,1.42
2022-08-18T17:51:26.884Z,1.10
2022-08-18T17:54:01.381Z,1.17
2022-08-18T17:56:43.460Z,1.20
2022-08-18T17:59:45.485Z,1.60
2022-08-18T18:02:28.719Z,1.30
2022-08-18T18:05:07.508Z,1.13
2022-08-18T18:07:54.728Z,1.52
2022-08-18T18:10:47.026Z,1.20
2022-08-18T18:13:32.695Z,1.20
2022-08-18T18:16:24.532Z,1.55
2022-08-18T18:19:01.845Z,1.40
2022-08-18T18:22:00.771Z,1.20
2022-08-18T18:24:33.145Z,1.50
2022-08-18T18:27:32.477Z,1.25
2022-08-18T18:30:27.899Z,1.30
2022-08-18T18:33:05.770Z,1.40
2022-08-18T18:35:54.939Z,1.20
2022-08-18T18:38:30.701Z,1.60
2022-08-18T18:41:07.781Z,1.55
2022-08-18T18:43:43.570Z,1.40
2022-08-18T18:46:32.096Z,1.10
2022-08-18T18:49:16.535Z,1.70
2022-08-18T18:52:02.215Z,0.85
2022-08-18T18:54:50.195Z,1.30
2022-08-18T18:57:34.038Z,1.33
2022-08-18T19:00:19.961Z,1.30
2022-08-18T19:03:04.486Z,1.23
2022-08-18T19:05:46.515Z,1.45
2022-08-18T19:08:31.116Z,1.60
2022-08-18T19:11:15.826Z,1.33
2022-08-18T19:13:55.283Z,1.73
2022-08-18T19:16:31.897Z,1.48
2022-08-18T19:19:37.454Z,1.67
2022-08-18T19:22:15.948Z,1.77
2022-08-18T19:24:56.866Z,1.58
2022-08-18T19:27:36.277Z,1.48
2022-08-18T19:30:14.279Z,1.52
2022-08-18T19:32:50.539Z,1.35
2022-08-18T19:35:35.375Z,1.42
2022-08-18T19:38:21.251Z,1.60
2022-08-18T19:41:00.387Z,1.33
2022-08-18T19:43:38.791Z,1.50
2022-08-18T19:46:19.745Z,1.30
2022-08-18T19:49:00.753Z,1.55
2022-08-18T19:51:37.725Z,1.50
2022-08-18T19:54:36.785Z,1.55
2022-08-18T19:57:23.647Z,1.40
2022-08-18T20:00:14.595Z,1.38
2022-08-18T20:03:07.925Z,1.50
2022-08-18T20:08:39.303Z,1.67
2022-08-18T20:11:41.968Z,1.25
2022-08-18T20:14:18.889Z,1.00
2022-08-18T20:17:16.822Z,1.60
2022-08-18T20:20:15.701Z,1.45
2022-08-18T20:22:55.169Z,1.60
2022-08-18T20:25:46.330Z,1.50
2022-08-18T20:28:33.457Z,1.13
2022-08-18T20:31:17.604Z,1.33
2022-08-18T20:34:14.195Z,1.20
2022-08-18T20:36:48.907Z,1.40
2022-08-18T20:39:36.188Z,1.23
2022-08-18T20:42:46.870Z,1.20
2022-08-18T20:45:34.747Z,1.20
2022-08-18T20:48:19.121Z,1.40
2022-08-18T20:51:03.245Z,1.50
2022-08-18T20:53:52.326Z,1.40
2022-08-18T20:56:43.117Z,1.58
2022-08-18T20:59:21.347Z,1.40
2022-08-18T21:01:57.610Z,1.60
2022-08-18T21:04:48.264Z,1.40
2022-08-18T21:07:36.253Z,1.40
2022-08-18T21:10:18.908Z,1.55
2022-08-18T21:12:55.280Z,1.63
2022-08-18T21:15:31.712Z,1.55
2022-08-18T21:18:07.309Z,1.45
2022-08-18T21:20:40.490Z,1.30
2022-08-18T21:23:15.370Z,1.58
2022-08-18T21:25:52.655Z,1.48
2022-08-18T21:28:28.875Z,1.60
2022-08-18T21:31:42.965Z,1.45
2022-08-18T21:34:30.053Z,1.63
2022-08-18T21:37:08.377Z,1.30
2022-08-18T21:39:53.107Z,1.42
2022-08-18T21:42:29.408Z,1.70
2022-08-18T21:45:02.221Z,1.50
2022-08-18T21:47:36.402Z,1.70
2022-08-18T21:50:12.473Z,1.40
2022-08-18T21:52:52.395Z,1.92
2022-08-18T21:55:31.625Z,2.10
2022-08-18T21:58:17.677Z,1.42
2022-08-18T22:01:11.944Z,2.08
2022-08-18T22:03:54.984Z,1.50
2022-08-18T22:06:40.821Z,1.38
2022-08-18T22:09:37.402Z,1.50
2022-08-18T22:12:42.686Z,2.08
2022-08-18T22:15:19.260Z,1.80
2022-08-18T22:17:56.376Z,1.80
2022-08-18T22:20:46.187Z,2.00
2022-08-18T22:23:43.558Z,1.50
2022-08-18T22:26:22.264Z,1.60
2022-08-18T22:28:59.539Z,1.50
2022-08-18T22:31:34.355Z,1.40
2022-08-18T22:34:09.151Z,1.60
2022-08-18T22:36:47.134Z,2.10
2022-08-18T22:39:25.712Z,1.73
2022-08-18T22:41:59.685Z,1.52
2022-08-18T22:44:33.029Z,1.42
2022-08-18T22:47:06.433Z,1.40
2022-08-18T22:49:39.948Z,1.58
2022-08-18T22:52:19.971Z,1.67
2022-08-18T22:54:53.584Z,1.45
2022-08-18T22:57:26.685Z,1.80
2022-08-18T22:59:59.806Z,1.65
2022-08-18T23:02:33.072Z,1.55
2022-08-18T23:05:07.061Z,1.58
2022-08-18T23:07:41.307Z,1.52
2022-08-18T23:10:16.484Z,1.75
2022-08-18T23:12:50.149Z,1.55
2022-08-18T23:15:38.488Z,1.48
2022-08-18T23:18:11.427Z,1.80
2022-08-18T23:20:45.318Z,1.30
2022-08-18T23:23:21.823Z,1.58
2022-08-18T23:25:55.115Z,2.00
2022-08-18T23:28:28.082Z,1.67
2022-08-18T23:33:34.556Z,1.40
2022-08-18T23:36:07.668Z,1.25
2022-08-18T23:38:42.488Z,1.35
2022-08-18T23:41:16.365Z,1.50
2022-08-18T23:43:49.485Z,1.50
2022-08-18T23:46:28.529Z,2.03
2022-08-18T23:49:03.852Z,1.75
2022-08-18T23:51:39.098Z,1.65
2022-08-18T23:54:15.572Z,1.73
2022-08-18T23:56:49.034Z,1.70
2022-08-18T23:59:24.085Z,1.48
